sensor_id;sensor_type;location;lat;lon;timestamp;P1;durP1;ratioP1;P2;durP2;ratioP2
38529;SDS011;24301;54.332;48.386;2022-08-30T00:01:33;12.25;;;6.15;;
38529;SDS011;24301;54.332;48.386;2022-08-30T00:03:59;8.82;;;5.75;;
38529;SDS011;24301;54.332;48.386;2022-08-30T00:06:27;6.85;;;5.88;;
38529;SDS011;24301;54.332;48.386;2022-08-30T00:08:54;8.07;;;6.28;;
38529;SDS011;24301;54.332;48.386;2022-08-30T00:11:22;11.15;;;5.95;;
38529;SDS011;24301;54.332;48.386;2022-08-30T00:13:51;6.88;;;5.43;;
38529;SDS011;24301;54.332;48.386;2022-08-30T00:16:19;8.07;;;5.30;;
38529;SDS011;24301;54.332;48.386;2022-08-30T00:18:47;9.25;;;5.88;;
38529;SDS011;24301;54.332;48.386;2022-08-30T00:21:13;6.47;;;5.03;;
38529;SDS011;24301;54.332;48.386;2022-08-30T00:23:39;8.15;;;5.70;;
38529;SDS011;24301;54.332;48.386;2022-08-30T00:26:05;7.28;;;5.10;;
38529;SDS011;24301;54.332;48.386;2022-08-30T00:28:32;7.07;;;5.65;;
38529;SDS011;24301;54.332;48.386;2022-08-30T00:30:59;7.15;;;5.35;;
38529;SDS011;24301;54.332;48.386;2022-08-30T00:33:26;8.23;;;6.05;;
38529;SDS011;24301;54.332;48.386;2022-08-30T00:35:53;10.15;;;5.40;;
38529;SDS011;24301;54.332;48.386;2022-08-30T00:38:19;8.15;;;5.28;;
38529;SDS011;24301;54.332;48.386;2022-08-30T00:40:47;8.88;;;6.20;;
38529;SDS011;24301;54.332;48.386;2022-08-30T00:43:17;9.43;;;5.47;;
38529;SDS011;24301;54.332;48.386;2022-08-30T00:45:48;8.30;;;5.78;;
38529;SDS011;24301;54.332;48.386;2022-08-30T00:48:14;7.63;;;5.68;;
38529;SDS011;24301;54.332;48.386;2022-08-30T00:53:38;9.93;;;5.93;;
38529;SDS011;24301;54.332;48.386;2022-08-30T00:58:52;9.15;;;6.38;;
38529;SDS011;24301;54.332;48.386;2022-08-30T01:01:21;15.48;;;6.30;;
38529;SDS011;24301;54.332;48.386;2022-08-30T01:03:48;9.90;;;5.72;;
38529;SDS011;24301;54.332;48.386;2022-08-30T01:06:14;8.75;;;6.65;;
38529;SDS011;24301;54.332;48.386;2022-08-30T01:08:41;10.60;;;6.45;;
38529;SDS011;24301;54.332;48.386;2022-08-30T01:11:12;8.65;;;6.05;;
38529;SDS011;24301;54.332;48.386;2022-08-30T01:13:39;10.13;;;5.65;;
38529;SDS011;24301;54.332;48.386;2022-08-30T01:16:07;7.63;;;6.13;;
38529;SDS011;24301;54.332;48.386;2022-08-30T01:18:32;11.13;;;6.15;;
38529;SDS011;24301;54.332;48.386;2022-08-30T01:23:48;6.95;;;5.85;;
38529;SDS011;24301;54.332;48.386;2022-08-30T01:26:18;10.75;;;5.63;;
38529;SDS011;24301;54.332;48.386;2022-08-30T01:28:45;9.52;;;6.13;;
38529;SDS011;24301;54.332;48.386;2022-08-30T01:31:14;6.50;;;5.63;;
38529;SDS011;24301;54.332;48.386;2022-08-30T01:33:40;7.53;;;5.60;;
38529;SDS011;24301;54.332;48.386;2022-08-30T01:36:07;7.55;;;5.43;;
38529;SDS011;24301;54.332;48.386;2022-08-30T01:38:46;9.18;;;5.93;;
38529;SDS011;24301;54.332;48.386;2022-08-30T01:41:18;8.45;;;6.15;;
38529;SDS011;24301;54.332;48.386;2022-08-30T01:43:53;7.72;;;5.55;;
38529;SDS011;24301;54.332;48.386;2022-08-30T01:46:22;10.65;;;5.78;;
38529;SDS011;24301;54.332;48.386;2022-08-30T01:48:51;9.05;;;6.10;;
38529;SDS011;24301;54.332;48.386;2022-08-30T01:51:18;8.13;;;5.57;;
38529;SDS011;24301;54.332;48.386;2022-08-30T01:53:44;9.23;;;5.63;;
38529;SDS011;24301;54.332;48.386;2022-08-30T01:56:11;9.82;;;6.50;;
38529;SDS011;24301;54.332;48.386;2022-08-30T01:58:38;9.43;;;6.32;;
38529;SDS011;24301;54.332;48.386;2022-08-30T02:01:05;7.78;;;6.38;;
38529;SDS011;24301;54.332;48.386;2022-08-30T02:03:34;9.10;;;6.18;;
38529;SDS011;24301;54.332;48.386;2022-08-30T02:06:04;10.20;;;6.47;;
38529;SDS011;24301;54.332;48.386;2022-08-30T02:08:32;8.13;;;6.57;;
38529;SDS011;24301;54.332;48.386;2022-08-30T02:10:59;9.30;;;6.55;;
38529;SDS011;24301;54.332;48.386;2022-08-30T02:13:26;10.88;;;6.53;;
38529;SDS011;24301;54.332;48.386;2022-08-30T02:15:53;10.05;;;6.25;;
38529;SDS011;24301;54.332;48.386;2022-08-30T02:18:19;8.50;;;5.80;;
38529;SDS011;24301;54.332;48.386;2022-08-30T02:20:45;8.00;;;6.38;;
38529;SDS011;24301;54.332;48.386;2022-08-30T02:23:11;7.80;;;6.95;;
38529;SDS011;24301;54.332;48.386;2022-08-30T02:25:37;10.95;;;6.78;;
38529;SDS011;24301;54.332;48.386;2022-08-30T02:28:03;10.98;;;6.20;;
38529;SDS011;24301;54.332;48.386;2022-08-30T02:30:30;7.15;;;5.95;;
38529;SDS011;24301;54.332;48.386;2022-08-30T02:32:56;10.07;;;6.85;;
38529;SDS011;24301;54.332;48.386;2022-08-30T02:35:22;9.18;;;6.68;;
38529;SDS011;24301;54.332;48.386;2022-08-30T02:37:48;10.65;;;7.22;;
38529;SDS011;24301;54.332;48.386;2022-08-30T02:40:14;8.40;;;7.03;;
38529;SDS011;24301;54.332;48.386;2022-08-30T02:42:40;8.73;;;7.00;;
38529;SDS011;24301;54.332;48.386;2022-08-30T02:45:06;7.95;;;6.10;;
38529;SDS011;24301;54.332;48.386;2022-08-30T02:47:33;9.23;;;6.80;;
38529;SDS011;24301;54.332;48.386;2022-08-30T02:49:59;8.82;;;6.88;;
38529;SDS011;24301;54.332;48.386;2022-08-30T02:52:28;7.53;;;6.55;;
38529;SDS011;24301;54.332;48.386;2022-08-30T02:54:54;8.57;;;6.93;;
38529;SDS011;24301;54.332;48.386;2022-08-30T02:57:21;8.75;;;6.88;;
38529;SDS011;24301;54.332;48.386;2022-08-30T02:59:47;10.63;;;6.85;;
38529;SDS011;24301;54.332;48.386;2022-08-30T03:02:14;8.57;;;6.55;;
38529;SDS011;24301;54.332;48.386;2022-08-30T03:04:40;12.02;;;7.80;;
38529;SDS011;24301;54.332;48.386;2022-08-30T03:07:08;9.95;;;6.50;;
38529;SDS011;24301;54.332;48.386;2022-08-30T03:09:35;8.90;;;6.60;;
38529;SDS011;24301;54.332;48.386;2022-08-30T03:12:02;9.68;;;6.22;;
38529;SDS011;24301;54.332;48.386;2022-08-30T03:14:30;9.23;;;6.70;;
38529;SDS011;24301;54.332;48.386;2022-08-30T03:16:56;10.02;;;6.75;;
38529;SDS011;24301;54.332;48.386;2022-08-30T03:19:23;10.57;;;7.20;;
38529;SDS011;24301;54.332;48.386;2022-08-30T03:21:49;8.77;;;6.45;;
38529;SDS011;24301;54.332;48.386;2022-08-30T03:24:16;8.63;;;7.70;;
38529;SDS011;24301;54.332;48.386;2022-08-30T03:26:42;8.63;;;7.07;;
38529;SDS011;24301;54.332;48.386;2022-08-30T03:29:08;8.20;;;7.22;;
38529;SDS011;24301;54.332;48.386;2022-08-30T03:31:34;9.20;;;6.57;;
38529;SDS011;24301;54.332;48.386;2022-08-30T03:34:01;10.05;;;6.63;;
38529;SDS011;24301;54.332;48.386;2022-08-30T03:36:28;9.15;;;6.55;;
38529;SDS011;24301;54.332;48.386;2022-08-30T03:38:54;14.50;;;7.07;;
38529;SDS011;24301;54.332;48.386;2022-08-30T03:41:20;7.78;;;6.22;;
38529;SDS011;24301;54.332;48.386;2022-08-30T03:43:46;9.30;;;6.78;;
38529;SDS011;24301;54.332;48.386;2022-08-30T03:46:12;8.68;;;6.88;;
38529;SDS011;24301;54.332;48.386;2022-08-30T03:48:38;9.75;;;6.85;;
38529;SDS011;24301;54.332;48.386;2022-08-30T03:51:05;9.85;;;6.40;;
38529;SDS011;24301;54.332;48.386;2022-08-30T03:53:31;8.45;;;6.47;;
38529;SDS011;24301;54.332;48.386;2022-08-30T03:55:57;9.13;;;6.18;;
38529;SDS011;24301;54.332;48.386;2022-08-30T03:58:23;9.07;;;6.28;;
38529;SDS011;24301;54.332;48.386;2022-08-30T04:00:49;8.23;;;6.05;;
38529;SDS011;24301;54.332;48.386;2022-08-30T04:03:15;11.15;;;6.13;;
38529;SDS011;24301;54.332;48.386;2022-08-30T04:05:42;11.07;;;6.72;;
38529;SDS011;24301;54.332;48.386;2022-08-30T04:08:09;10.30;;;6.57;;
38529;SDS011;24301;54.332;48.386;2022-08-30T04:10:35;10.13;;;6.40;;
38529;SDS011;24301;54.332;48.386;2022-08-30T04:13:01;10.73;;;6.60;;
38529;SDS011;24301;54.332;48.386;2022-08-30T04:15:27;11.30;;;7.00;;
38529;SDS011;24301;54.332;48.386;2022-08-30T04:17:53;7.15;;;6.35;;
38529;SDS011;24301;54.332;48.386;2022-08-30T04:20:19;8.18;;;6.25;;
38529;SDS011;24301;54.332;48.386;2022-08-30T04:22:45;10.23;;;7.50;;
38529;SDS011;24301;54.332;48.386;2022-08-30T04:25:11;14.10;;;7.30;;
38529;SDS011;24301;54.332;48.386;2022-08-30T04:27:38;8.23;;;6.50;;
38529;SDS011;24301;54.332;48.386;2022-08-30T04:30:04;8.48;;;6.63;;
38529;SDS011;24301;54.332;48.386;2022-08-30T04:32:33;9.13;;;6.78;;
38529;SDS011;24301;54.332;48.386;2022-08-30T04:35:00;11.82;;;7.18;;
38529;SDS011;24301;54.332;48.386;2022-08-30T04:37:26;8.35;;;6.72;;
38529;SDS011;24301;54.332;48.386;2022-08-30T04:39:56;9.57;;;6.65;;
38529;SDS011;24301;54.332;48.386;2022-08-30T04:42:25;11.77;;;7.00;;
38529;SDS011;24301;54.332;48.386;2022-08-30T04:45:00;10.23;;;6.25;;
38529;SDS011;24301;54.332;48.386;2022-08-30T04:47:28;9.52;;;6.90;;
38529;SDS011;24301;54.332;48.386;2022-08-30T04:49:54;8.35;;;6.75;;
38529;SDS011;24301;54.332;48.386;2022-08-30T04:52:20;10.13;;;6.85;;
38529;SDS011;24301;54.332;48.386;2022-08-30T04:54:45;10.18;;;6.13;;
38529;SDS011;24301;54.332;48.386;2022-08-30T04:57:11;15.05;;;7.10;;
38529;SDS011;24301;54.332;48.386;2022-08-30T04:59:37;10.40;;;5.90;;
38529;SDS011;24301;54.332;48.386;2022-08-30T05:02:04;7.93;;;5.35;;
38529;SDS011;24301;54.332;48.386;2022-08-30T05:04:30;9.88;;;5.97;;
38529;SDS011;24301;54.332;48.386;2022-08-30T05:06:56;9.25;;;6.53;;
38529;SDS011;24301;54.332;48.386;2022-08-30T05:09:21;9.20;;;7.07;;
38529;SDS011;24301;54.332;48.386;2022-08-30T05:11:47;17.73;;;7.53;;
38529;SDS011;24301;54.332;48.386;2022-08-30T05:14:13;13.73;;;6.93;;
38529;SDS011;24301;54.332;48.386;2022-08-30T05:16:39;14.32;;;7.10;;
38529;SDS011;24301;54.332;48.386;2022-08-30T05:19:05;12.30;;;7.28;;
38529;SDS011;24301;54.332;48.386;2022-08-30T05:21:32;10.63;;;6.93;;
38529;SDS011;24301;54.332;48.386;2022-08-30T05:23:59;14.60;;;7.03;;
38529;SDS011;24301;54.332;48.386;2022-08-30T05:26:26;10.05;;;6.93;;
38529;SDS011;24301;54.332;48.386;2022-08-30T05:28:57;8.70;;;6.90;;
38529;SDS011;24301;54.332;48.386;2022-08-30T05:31:30;14.43;;;8.07;;
38529;SDS011;24301;54.332;48.386;2022-08-30T05:33:58;8.23;;;6.20;;
38529;SDS011;24301;54.332;48.386;2022-08-30T05:36:26;12.68;;;6.75;;
38529;SDS011;24301;54.332;48.386;2022-08-30T05:38:54;10.23;;;7.05;;
38529;SDS011;24301;54.332;48.386;2022-08-30T05:41:21;8.95;;;6.80;;
38529;SDS011;24301;54.332;48.386;2022-08-30T05:43:50;10.15;;;7.93;;
38529;SDS011;24301;54.332;48.386;2022-08-30T05:46:24;11.02;;;7.85;;
38529;SDS011;24301;54.332;48.386;2022-08-30T05:48:53;11.82;;;7.40;;
38529;SDS011;24301;54.332;48.386;2022-08-30T05:51:21;10.10;;;7.15;;
38529;SDS011;24301;54.332;48.386;2022-08-30T05:53:49;15.98;;;8.18;;
38529;SDS011;24301;54.332;48.386;2022-08-30T05:56:24;18.00;;;8.80;;
38529;SDS011;24301;54.332;48.386;2022-08-30T05:58:53;8.90;;;6.97;;
38529;SDS011;24301;54.332;48.386;2022-08-30T06:03:47;9.80;;;7.85;;
38529;SDS011;24301;54.332;48.386;2022-08-30T06:06:13;14.73;;;8.43;;
38529;SDS011;24301;54.332;48.386;2022-08-30T06:08:39;12.20;;;8.38;;
38529;SDS011;24301;54.332;48.386;2022-08-30T06:11:04;11.95;;;7.60;;
38529;SDS011;24301;54.332;48.386;2022-08-30T06:13:30;8.30;;;7.28;;
38529;SDS011;24301;54.332;48.386;2022-08-30T06:15:57;11.90;;;7.60;;
38529;SDS011;24301;54.332;48.386;2022-08-30T06:18:22;12.75;;;8.13;;
38529;SDS011;24301;54.332;48.386;2022-08-30T06:20:48;12.63;;;7.30;;
38529;SDS011;24301;54.332;48.386;2022-08-30T06:23:15;13.30;;;8.52;;
38529;SDS011;24301;54.332;48.386;2022-08-30T06:25:44;9.45;;;8.23;;
38529;SDS011;24301;54.332;48.386;2022-08-30T06:28:12;10.50;;;7.90;;
38529;SDS011;24301;54.332;48.386;2022-08-30T06:30:39;9.18;;;7.10;;
38529;SDS011;24301;54.332;48.386;2022-08-30T06:33:07;10.35;;;7.75;;
38529;SDS011;24301;54.332;48.386;2022-08-30T06:35:34;13.55;;;8.00;;
38529;SDS011;24301;54.332;48.386;2022-08-30T06:38:01;8.68;;;6.72;;
38529;SDS011;24301;54.332;48.386;2022-08-30T06:40:27;10.23;;;8.50;;
38529;SDS011;24301;54.332;48.386;2022-08-30T06:42:53;13.95;;;7.72;;
38529;SDS011;24301;54.332;48.386;2022-08-30T06:45:19;18.67;;;9.35;;
38529;SDS011;24301;54.332;48.386;2022-08-30T06:47:45;10.90;;;8.13;;
38529;SDS011;24301;54.332;48.386;2022-08-30T06:50:12;15.55;;;8.02;;
38529;SDS011;24301;54.332;48.386;2022-08-30T06:52:40;9.60;;;7.15;;
38529;SDS011;24301;54.332;48.386;2022-08-30T06:55:08;9.32;;;6.30;;
38529;SDS011;24301;54.332;48.386;2022-08-30T06:57:38;11.00;;;6.95;;
38529;SDS011;24301;54.332;48.386;2022-08-30T07:00:06;11.65;;;7.22;;
38529;SDS011;24301;54.332;48.386;2022-08-30T07:02:35;11.65;;;7.43;;
38529;SDS011;24301;54.332;48.386;2022-08-30T07:05:02;11.30;;;7.18;;
38529;SDS011;24301;54.332;48.386;2022-08-30T07:07:29;11.75;;;7.28;;
38529;SDS011;24301;54.332;48.386;2022-08-30T07:09:54;10.82;;;7.38;;
38529;SDS011;24301;54.332;48.386;2022-08-30T07:12:20;11.02;;;7.05;;
38529;SDS011;24301;54.332;48.386;2022-08-30T07:14:46;12.32;;;7.60;;
38529;SDS011;24301;54.332;48.386;2022-08-30T07:17:26;9.48;;;7.68;;
38529;SDS011;24301;54.332;48.386;2022-08-30T07:20:10;8.43;;;7.60;;
38529;SDS011;24301;54.332;48.386;2022-08-30T07:22:36;14.63;;;7.70;;
38529;SDS011;24301;54.332;48.386;2022-08-30T07:25:02;14.10;;;7.68;;
38529;SDS011;24301;54.332;48.386;2022-08-30T07:27:29;13.02;;;7.85;;
38529;SDS011;24301;54.332;48.386;2022-08-30T07:29:56;12.23;;;7.80;;
38529;SDS011;24301;54.332;48.386;2022-08-30T07:32:23;12.02;;;7.90;;
38529;SDS011;24301;54.332;48.386;2022-08-30T07:34:48;8.70;;;7.57;;
38529;SDS011;24301;54.332;48.386;2022-08-30T07:37:14;9.82;;;7.15;;
38529;SDS011;24301;54.332;48.386;2022-08-30T07:39:40;13.07;;;7.22;;
38529;SDS011;24301;54.332;48.386;2022-08-30T07:42:06;8.55;;;6.40;;
38529;SDS011;24301;54.332;48.386;2022-08-30T07:44:32;10.30;;;6.88;;
38529;SDS011;24301;54.332;48.386;2022-08-30T07:46:57;11.32;;;6.93;;
38529;SDS011;24301;54.332;48.386;2022-08-30T07:49:23;10.32;;;7.00;;
38529;SDS011;24301;54.332;48.386;2022-08-30T07:51:53;11.25;;;6.18;;
38529;SDS011;24301;54.332;48.386;2022-08-30T07:54:20;9.35;;;6.43;;
38529;SDS011;24301;54.332;48.386;2022-08-30T07:56:46;9.05;;;6.47;;
38529;SDS011;24301;54.332;48.386;2022-08-30T07:59:13;9.25;;;5.90;;
38529;SDS011;24301;54.332;48.386;2022-08-30T08:01:39;10.90;;;6.72;;
38529;SDS011;24301;54.332;48.386;2022-08-30T08:04:04;9.88;;;6.93;;
38529;SDS011;24301;54.332;48.386;2022-08-30T08:06:30;11.18;;;7.22;;
38529;SDS011;24301;54.332;48.386;2022-08-30T08:08:56;7.57;;;5.78;;
38529;SDS011;24301;54.332;48.386;2022-08-30T08:11:26;11.73;;;6.53;;
38529;SDS011;24301;54.332;48.386;2022-08-30T08:13:53;15.55;;;7.47;;
38529;SDS011;24301;54.332;48.386;2022-08-30T08:16:19;10.80;;;6.65;;
38529;SDS011;24301;54.332;48.386;2022-08-30T08:18:47;8.15;;;6.20;;
38529;SDS011;24301;54.332;48.386;2022-08-30T08:21:12;9.23;;;6.20;;
38529;SDS011;24301;54.332;48.386;2022-08-30T08:23:38;9.20;;;6.45;;
38529;SDS011;24301;54.332;48.386;2022-08-30T08:26:04;10.50;;;6.97;;
38529;SDS011;24301;54.332;48.386;2022-08-30T08:28:30;9.15;;;6.72;;
38529;SDS011;24301;54.332;48.386;2022-08-30T08:30:56;10.52;;;7.30;;
38529;SDS011;24301;54.332;48.386;2022-08-30T08:33:22;9.23;;;6.75;;
38529;SDS011;24301;54.332;48.386;2022-08-30T08:35:48;14.05;;;7.63;;
38529;SDS011;24301;54.332;48.386;2022-08-30T08:38:14;9.63;;;6.68;;
38529;SDS011;24301;54.332;48.386;2022-08-30T08:43:13;13.00;;;6.68;;
38529;SDS011;24301;54.332;48.386;2022-08-30T08:45:45;9.38;;;6.10;;
38529;SDS011;24301;54.332;48.386;2022-08-30T08:48:28;10.55;;;6.63;;
38529;SDS011;24301;54.332;48.386;2022-08-30T08:50:58;8.90;;;6.00;;
38529;SDS011;24301;54.332;48.386;2022-08-30T08:53:47;10.68;;;6.25;;
38529;SDS011;24301;54.332;48.386;2022-08-30T08:56:18;9.63;;;6.32;;
38529;SDS011;24301;54.332;48.386;2022-08-30T08:58:51;10.13;;;6.07;;
38529;SDS011;24301;54.332;48.386;2022-08-30T09:01:23;8.27;;;5.43;;
38529;SDS011;24301;54.332;48.386;2022-08-30T09:03:54;13.23;;;5.30;;
38529;SDS011;24301;54.332;48.386;2022-08-30T09:06:23;9.40;;;4.43;;
38529;SDS011;24301;54.332;48.386;2022-08-30T09:09:11;9.55;;;4.53;;
38529;SDS011;24301;54.332;48.386;2022-08-30T09:11:38;10.10;;;4.78;;
38529;SDS011;24301;54.332;48.386;2022-08-30T09:14:12;13.70;;;5.15;;
38529;SDS011;24301;54.332;48.386;2022-08-30T09:19:45;22.33;;;4.43;;
38529;SDS011;24301;54.332;48.386;2022-08-30T09:22:21;11.07;;;4.40;;
38529;SDS011;24301;54.332;48.386;2022-08-30T09:24:59;13.88;;;4.80;;
38529;SDS011;24301;54.332;48.386;2022-08-30T09:27:35;13.57;;;4.95;;
38529;SDS011;24301;54.332;48.386;2022-08-30T09:30:25;9.82;;;3.92;;
38529;SDS011;24301;54.332;48.386;2022-08-30T09:32:55;14.43;;;4.10;;
38529;SDS011;24301;54.332;48.386;2022-08-30T09:35:22;17.30;;;4.60;;
38529;SDS011;24301;54.332;48.386;2022-08-30T09:38:11;9.88;;;4.15;;
38529;SDS011;24301;54.332;48.386;2022-08-30T09:40:44;14.23;;;4.47;;
38529;SDS011;24301;54.332;48.386;2022-08-30T09:45:42;23.20;;;4.53;;
38529;SDS011;24301;54.332;48.386;2022-08-30T09:48:22;11.73;;;4.70;;
38529;SDS011;24301;54.332;48.386;2022-08-30T09:50:57;12.93;;;4.85;;
38529;SDS011;24301;54.332;48.386;2022-08-30T09:53:40;12.80;;;4.30;;
38529;SDS011;24301;54.332;48.386;2022-08-30T10:01:59;14.93;;;5.20;;
38529;SDS011;24301;54.332;48.386;2022-08-30T10:21:25;11.18;;;4.80;;
38529;SDS011;24301;54.332;48.386;2022-08-30T10:24:04;14.93;;;4.68;;
38529;SDS011;24301;54.332;48.386;2022-08-30T10:26:37;22.60;;;5.13;;
38529;SDS011;24301;54.332;48.386;2022-08-30T10:29:18;18.73;;;4.32;;
38529;SDS011;24301;54.332;48.386;2022-08-30T10:31:53;17.63;;;4.10;;
38529;SDS011;24301;54.332;48.386;2022-08-30T10:34:24;20.73;;;4.15;;
38529;SDS011;24301;54.332;48.386;2022-08-30T10:37:02;10.15;;;3.70;;
38529;SDS011;24301;54.332;48.386;2022-08-30T10:39:34;10.82;;;4.03;;
38529;SDS011;24301;54.332;48.386;2022-08-30T10:42:09;15.45;;;4.60;;
38529;SDS011;24301;54.332;48.386;2022-08-30T10:52:42;7.93;;;4.00;;
38529;SDS011;24301;54.332;48.386;2022-08-30T10:55:14;11.10;;;4.28;;
38529;SDS011;24301;54.332;48.386;2022-08-30T10:57:46;14.65;;;4.05;;
38529;SDS011;24301;54.332;48.386;2022-08-30T11:00:15;12.77;;;4.47;;
38529;SDS011;24301;54.332;48.386;2022-08-30T11:03:09;12.35;;;4.10;;
38529;SDS011;24301;54.332;48.386;2022-08-30T11:06:21;9.70;;;5.10;;
38529;SDS011;24301;54.332;48.386;2022-08-30T11:08:54;10.25;;;3.65;;
38529;SDS011;24301;54.332;48.386;2022-08-30T11:14:05;6.68;;;3.38;;
38529;SDS011;24301;54.332;48.386;2022-08-30T11:16:40;6.55;;;3.50;;
38529;SDS011;24301;54.332;48.386;2022-08-30T11:19:37;6.93;;;3.90;;
38529;SDS011;24301;54.332;48.386;2022-08-30T11:32:57;19.05;;;3.92;;
38529;SDS011;24301;54.332;48.386;2022-08-30T11:35:39;12.02;;;3.78;;
38529;SDS011;24301;54.332;48.386;2022-08-30T11:38:17;15.50;;;4.43;;
38529;SDS011;24301;54.332;48.386;2022-08-30T11:51:37;15.60;;;4.45;;
38529;SDS011;24301;54.332;48.386;2022-08-30T12:08:38;20.45;;;4.50;;
38529;SDS011;24301;54.332;48.386;2022-08-30T12:11:05;16.20;;;4.40;;
38529;SDS011;24301;54.332;48.386;2022-08-30T12:16:21;14.30;;;3.92;;
38529;SDS011;24301;54.332;48.386;2022-08-30T12:19:15;13.68;;;4.70;;
38529;SDS011;24301;54.332;48.386;2022-08-30T12:21:53;16.08;;;4.30;;
38529;SDS011;24301;54.332;48.386;2022-08-30T12:24:34;23.75;;;4.68;;
38529;SDS011;24301;54.332;48.386;2022-08-30T12:29:53;15.48;;;4.35;;
38529;SDS011;24301;54.332;48.386;2022-08-30T12:32:21;18.58;;;4.90;;
38529;SDS011;24301;54.332;48.386;2022-08-30T12:34:49;13.65;;;3.40;;
38529;SDS011;24301;54.332;48.386;2022-08-30T12:37:23;13.25;;;3.67;;
38529;SDS011;24301;54.332;48.386;2022-08-30T12:40:00;10.98;;;3.88;;
38529;SDS011;24301;54.332;48.386;2022-08-30T12:42:37;15.35;;;3.67;;
38529;SDS011;24301;54.332;48.386;2022-08-30T12:45:09;12.32;;;3.80;;
38529;SDS011;24301;54.332;48.386;2022-08-30T12:47:53;14.23;;;3.78;;
38529;SDS011;24301;54.332;48.386;2022-08-30T12:50:27;11.73;;;5.30;;
38529;SDS011;24301;54.332;48.386;2022-08-30T12:55:27;14.80;;;4.55;;
38529;SDS011;24301;54.332;48.386;2022-08-30T12:58:06;12.98;;;7.38;;
38529;SDS011;24301;54.332;48.386;2022-08-30T13:00:39;8.95;;;4.68;;
38529;SDS011;24301;54.332;48.386;2022-08-30T13:06:02;10.60;;;3.50;;
38529;SDS011;24301;54.332;48.386;2022-08-30T13:08:34;12.80;;;3.67;;
38529;SDS011;24301;54.332;48.386;2022-08-30T13:13:46;9.80;;;4.10;;
38529;SDS011;24301;54.332;48.386;2022-08-30T13:21:49;11.95;;;4.45;;
38529;SDS011;24301;54.332;48.386;2022-08-30T13:24:16;7.63;;;4.22;;
38529;SDS011;24301;54.332;48.386;2022-08-30T13:26:42;14.40;;;4.97;;
38529;SDS011;24301;54.332;48.386;2022-08-30T13:29:19;8.05;;;4.20;;
38529;SDS011;24301;54.332;48.386;2022-08-30T13:31:49;13.52;;;4.43;;
38529;SDS011;24301;54.332;48.386;2022-08-30T13:34:15;10.32;;;4.28;;
38529;SDS011;24301;54.332;48.386;2022-08-30T13:36:55;10.95;;;5.32;;
38529;SDS011;24301;54.332;48.386;2022-08-30T13:39:22;11.27;;;4.65;;
38529;SDS011;24301;54.332;48.386;2022-08-30T13:41:49;12.80;;;4.78;;
38529;SDS011;24301;54.332;48.386;2022-08-30T13:44:15;12.27;;;4.95;;
38529;SDS011;24301;54.332;48.386;2022-08-30T13:46:43;10.55;;;5.85;;
38529;SDS011;24301;54.332;48.386;2022-08-30T13:49:14;19.02;;;6.25;;
38529;SDS011;24301;54.332;48.386;2022-08-30T13:51:46;13.02;;;5.82;;
38529;SDS011;24301;54.332;48.386;2022-08-30T13:54:13;17.27;;;5.55;;
38529;SDS011;24301;54.332;48.386;2022-08-30T13:56:39;11.15;;;5.65;;
38529;SDS011;24301;54.332;48.386;2022-08-30T13:59:05;17.55;;;5.25;;
38529;SDS011;24301;54.332;48.386;2022-08-30T14:01:31;11.23;;;5.20;;
38529;SDS011;24301;54.332;48.386;2022-08-30T14:03:56;8.02;;;4.78;;
38529;SDS011;24301;54.332;48.386;2022-08-30T14:06:22;8.35;;;4.50;;
38529;SDS011;24301;54.332;48.386;2022-08-30T14:08:48;8.75;;;4.50;;
38529;SDS011;24301;54.332;48.386;2022-08-30T14:11:15;10.65;;;4.93;;
38529;SDS011;24301;54.332;48.386;2022-08-30T14:13:42;10.05;;;5.45;;
38529;SDS011;24301;54.332;48.386;2022-08-30T14:16:09;12.20;;;4.93;;
38529;SDS011;24301;54.332;48.386;2022-08-30T14:18:35;10.45;;;5.57;;
38529;SDS011;24301;54.332;48.386;2022-08-30T14:21:01;8.77;;;4.75;;
38529;SDS011;24301;54.332;48.386;2022-08-30T14:23:42;9.35;;;4.55;;
38529;SDS011;24301;54.332;48.386;2022-08-30T14:26:16;11.68;;;4.68;;
38529;SDS011;24301;54.332;48.386;2022-08-30T14:28:44;13.07;;;4.93;;
38529;SDS011;24301;54.332;48.386;2022-08-30T14:31:10;8.65;;;5.35;;
38529;SDS011;24301;54.332;48.386;2022-08-30T14:33:37;9.57;;;5.57;;
38529;SDS011;24301;54.332;48.386;2022-08-30T14:36:03;8.27;;;4.70;;
38529;SDS011;24301;54.332;48.386;2022-08-30T14:38:29;11.88;;;5.30;;
38529;SDS011;24301;54.332;48.386;2022-08-30T14:40:55;12.55;;;5.28;;
38529;SDS011;24301;54.332;48.386;2022-08-30T14:43:21;10.70;;;5.15;;
38529;SDS011;24301;54.332;48.386;2022-08-30T14:45:47;9.65;;;5.35;;
38529;SDS011;24301;54.332;48.386;2022-08-30T14:48:13;10.32;;;5.20;;
38529;SDS011;24301;54.332;48.386;2022-08-30T14:50:39;8.52;;;4.30;;
38529;SDS011;24301;54.332;48.386;2022-08-30T14:53:05;11.25;;;4.60;;
38529;SDS011;24301;54.332;48.386;2022-08-30T14:55:31;11.48;;;4.57;;
38529;SDS011;24301;54.332;48.386;2022-08-30T14:57:58;9.38;;;5.07;;
38529;SDS011;24301;54.332;48.386;2022-08-30T15:00:25;15.55;;;5.45;;
38529;SDS011;24301;54.332;48.386;2022-08-30T15:02:51;10.95;;;5.57;;
38529;SDS011;24301;54.332;48.386;2022-08-30T15:05:17;11.55;;;5.88;;
38529;SDS011;24301;54.332;48.386;2022-08-30T15:07:46;9.27;;;5.35;;
38529;SDS011;24301;54.332;48.386;2022-08-30T15:10:17;13.30;;;6.82;;
38529;SDS011;24301;54.332;48.386;2022-08-30T15:12:48;13.88;;;7.25;;
38529;SDS011;24301;54.332;48.386;2022-08-30T15:15:17;11.98;;;7.97;;
38529;SDS011;24301;54.332;48.386;2022-08-30T15:17:47;15.90;;;9.10;;
38529;SDS011;24301;54.332;48.386;2022-08-30T15:20:13;17.15;;;9.20;;
38529;SDS011;24301;54.332;48.386;2022-08-30T15:22:45;15.00;;;10.93;;
38529;SDS011;24301;54.332;48.386;2022-08-30T15:25:21;19.33;;;11.85;;
38529;SDS011;24301;54.332;48.386;2022-08-30T15:27:49;22.45;;;13.00;;
38529;SDS011;24301;54.332;48.386;2022-08-30T15:30:15;28.52;;;17.88;;
38529;SDS011;24301;54.332;48.386;2022-08-30T15:32:41;19.70;;;13.35;;
38529;SDS011;24301;54.332;48.386;2022-08-30T15:35:14;15.68;;;10.38;;
38529;SDS011;24301;54.332;48.386;2022-08-30T15:37:40;12.30;;;6.55;;
38529;SDS011;24301;54.332;48.386;2022-08-30T15:40:06;9.25;;;5.72;;
38529;SDS011;24301;54.332;48.386;2022-08-30T15:42:35;10.70;;;5.13;;
38529;SDS011;24301;54.332;48.386;2022-08-30T15:45:01;10.10;;;5.13;;
38529;SDS011;24301;54.332;48.386;2022-08-30T15:47:28;11.95;;;6.88;;
38529;SDS011;24301;54.332;48.386;2022-08-30T15:49:59;16.13;;;7.40;;
38529;SDS011;24301;54.332;48.386;2022-08-30T15:52:28;11.73;;;7.05;;
38529;SDS011;24301;54.332;48.386;2022-08-30T15:54:55;16.55;;;10.77;;
38529;SDS011;24301;54.332;48.386;2022-08-30T15:57:22;19.10;;;9.90;;
38529;SDS011;24301;54.332;48.386;2022-08-30T15:59:48;14.18;;;8.77;;
38529;SDS011;24301;54.332;48.386;2022-08-30T16:02:14;24.38;;;15.10;;
38529;SDS011;24301;54.332;48.386;2022-08-30T16:04:40;25.10;;;15.70;;
38529;SDS011;24301;54.332;48.386;2022-08-30T16:09:38;18.45;;;12.80;;
38529;SDS011;24301;54.332;48.386;2022-08-30T16:12:05;17.38;;;11.05;;
38529;SDS011;24301;54.332;48.386;2022-08-30T16:14:32;22.02;;;12.80;;
38529;SDS011;24301;54.332;48.386;2022-08-30T16:16:58;19.85;;;12.45;;
38529;SDS011;24301;54.332;48.386;2022-08-30T16:19:25;16.42;;;11.10;;
38529;SDS011;24301;54.332;48.386;2022-08-30T16:21:51;12.05;;;8.10;;
38529;SDS011;24301;54.332;48.386;2022-08-30T16:24:17;14.27;;;7.50;;
38529;SDS011;24301;54.332;48.386;2022-08-30T16:26:44;13.23;;;7.47;;